Time;durP1;ratioP1;P1;durP2;ratioP2;P2;SDS_P1;SDS_P2;PMS_P1;PMS_P2;Temp;Humidity;BMP_temperature;BMP_pressure;BME280_temperature;BME280_humidity;BME280_pressure;Samples;Min_cycle;Max_cycle;Signal;HPM_P1;HPM_P2
2022/10/04 00:01:01;;;;;;;11.23;4.78;;;;;;;;;;5052482;28;20248;-63
2022/10/04 00:03:30;;;;;;;9.63;4.55;;;;;;;;;;5070919;28;20644;-62
2022/10/04 00:05:58;;;;;;;13.68;4.60;;;;;;;;;;5071938;28;20190;-62
2022/10/04 00:08:29;;;;;;;9.70;3.88;;;;;;;;;;5072016;28;20273;-62
2022/10/04 00:11:09;;;;;;;12.30;4.68;;;;;;;;;;5072280;28;20221;-63
2022/10/04 00:13:37;;;;;;;14.65;4.50;;;;;;;;;;5072263;28;20200;-63
2022/10/04 00:16:05;;;;;;;11.55;4.18;;;;;;;;;;5072272;28;20236;-63
2022/10/04 00:18:39;;;;;;;7.20;4.20;;;;;;;;;;5071810;28;20181;-62
2022/10/04 00:21:07;;;;;;;7.53;3.92;;;;;;;;;;5072209;28;20201;-63
2022/10/04 00:23:42;;;;;;;6.35;4.07;;;;;;;;;;5072126;28;20231;-63
2022/10/04 00:26:16;;;;;;;4.75;3.92;;;;;;;;;;5072229;28;20196;-63
2022/10/04 00:28:49;;;;;;;4.85;3.95;;;;;;;;;;5072163;28;20220;-62
2022/10/04 00:31:19;;;;;;;9.50;5.00;;;;;;;;;;5072137;28;20217;-62
2022/10/04 00:33:47;;;;;;;5.32;3.72;;;;;;;;;;5071956;28;20308;-62
2022/10/04 00:36:48;;;;;;;5.68;4.40;;;;;;;;;;5072217;28;20256;-63
2022/10/04 00:39:17;;;;;;;5.50;4.20;;;;;;;;;;5071908;28;20525;-62
2022/10/04 00:41:54;;;;;;;4.70;4.20;;;;;;;;;;5072162;28;20215;-62
2022/10/04 00:44:25;;;;;;;5.38;3.45;;;;;;;;;;5072005;28;20185;-62
2022/10/04 00:46:53;;;;;;;5.80;4.03;;;;;;;;;;5071518;28;20208;-63
2022/10/04 00:49:21;;;;;;;8.45;4.28;;;;;;;;;;5071921;28;20213;-62
2022/10/04 00:51:52;;;;;;;7.00;4.30;;;;;;;;;;5072202;28;20213;-62
2022/10/04 00:54:22;;;;;;;12.45;5.20;;;;;;;;;;5071519;28;20648;-63
2022/10/04 00:56:52;;;;;;;16.17;4.20;;;;;;;;;;5071985;28;20190;-62
2022/10/04 00:59:27;;;;;;;13.80;5.13;;;;;;;;;;5071755;28;20189;-63
2022/10/04 01:01:57;;;;;;;19.85;6.45;;;;;;;;;;5071961;28;20190;-62
2022/10/04 01:04:28;;;;;;;13.93;5.25;;;;;;;;;;5071480;28;20603;-63
2022/10/04 01:06:58;;;;;;;8.07;5.47;;;;;;;;;;5071920;28;20645;-62
2022/10/04 01:09:26;;;;;;;11.32;4.90;;;;;;;;;;5071424;28;20213;-62
2022/10/04 01:11:57;;;;;;;14.68;4.78;;;;;;;;;;5071815;28;20221;-62
2022/10/04 01:14:30;;;;;;;6.05;4.25;;;;;;;;;;5071665;28;20197;-62
2022/10/04 01:16:57;;;;;;;6.95;4.80;;;;;;;;;;5071717;28;20217;-64
2022/10/04 01:19:29;;;;;;;16.15;4.40;;;;;;;;;;5073464;28;20189;-62
2022/10/04 01:22:04;;;;;;;10.52;4.65;;;;;;;;;;5060770;28;20583;-62
2022/10/04 01:24:36;;;;;;;8.45;4.13;;;;;;;;;;5075572;28;20273;-62
2022/10/04 01:27:04;;;;;;;8.13;4.22;;;;;;;;;;5075152;28;20193;-62
2022/10/04 01:29:32;;;;;;;6.25;3.88;;;;;;;;;;5075407;28;20200;-62
2022/10/04 01:32:00;;;;;;;5.47;4.50;;;;;;;;;;5075586;28;20239;-62
2022/10/04 01:34:29;;;;;;;6.25;4.75;;;;;;;;;;5074933;28;20186;-62
2022/10/04 01:36:57;;;;;;;6.93;4.30;;;;;;;;;;5074500;28;20726;-63
2022/10/04 01:39:26;;;;;;;10.52;4.50;;;;;;;;;;5075109;28;20229;-62
2022/10/04 01:41:57;;;;;;;6.63;4.32;;;;;;;;;;5074807;28;20559;-62
2022/10/04 01:44:28;;;;;;;4.75;3.97;;;;;;;;;;5075318;28;20595;-62
2022/10/04 01:47:00;;;;;;;5.25;4.43;;;;;;;;;;5074534;28;20189;-63
2022/10/04 01:49:29;;;;;;;5.35;3.97;;;;;;;;;;5074593;28;20186;-63
2022/10/04 01:51:58;;;;;;;5.10;4.57;;;;;;;;;;5074443;28;20217;-64
2022/10/04 01:54:32;;;;;;;5.38;3.95;;;;;;;;;;5074121;28;20186;-63
2022/10/04 01:57:03;;;;;;;5.53;4.35;;;;;;;;;;5074355;28;20236;-62
2022/10/04 01:59:34;;;;;;;6.60;3.85;;;;;;;;;;5074373;28;20247;-62
2022/10/04 02:02:03;;;;;;;13.82;4.10;;;;;;;;;;5074045;28;20717;-66
2022/10/04 02:04:33;;;;;;;4.78;4.25;;;;;;;;;;5074809;28;20198;-62
2022/10/04 02:07:01;;;;;;;4.63;3.50;;;;;;;;;;5074238;28;20206;-63
2022/10/04 02:09:30;;;;;;;7.35;5.15;;;;;;;;;;5074674;28;20193;-63
2022/10/04 02:11:58;;;;;;;6.95;4.78;;;;;;;;;;5074570;28;20611;-63
2022/10/04 02:14:29;;;;;;;7.68;4.55;;;;;;;;;;5073985;28;20666;-62
2022/10/04 02:16:57;;;;;;;5.57;4.55;;;;;;;;;;5074625;28;20185;-62
2022/10/04 02:19:27;;;;;;;6.35;4.45;;;;;;;;;;5073697;28;20696;-62
2022/10/04 02:21:55;;;;;;;8.85;5.22;;;;;;;;;;5074737;28;20243;-63
2022/10/04 02:24:23;;;;;;;7.30;5.40;;;;;;;;;;5073939;28;20185;-63
2022/10/04 02:26:51;;;;;;;7.40;5.15;;;;;;;;;;5074565;28;20200;-62
2022/10/04 02:29:20;;;;;;;7.25;5.18;;;;;;;;;;5074000;28;20579;-62
2022/10/04 02:34:34;;;;;;;8.57;4.95;;;;;;;;;;5074237;28;20427;-62
2022/10/04 02:37:02;;;;;;;8.07;5.25;;;;;;;;;;5073523;28;20765;-62
2022/10/04 02:39:32;;;;;;;8.48;5.35;;;;;;;;;;5074044;28;20243;-62
2022/10/04 02:42:03;;;;;;;11.15;5.22;;;;;;;;;;5073595;28;20186;-62
2022/10/04 02:44:34;;;;;;;5.38;3.85;;;;;;;;;;5074000;28;20190;-62
2022/10/04 02:47:08;;;;;;;8.18;5.43;;;;;;;;;;5073635;28;20181;-62
2022/10/04 02:49:38;;;;;;;7.10;4.55;;;;;;;;;;5074084;28;20189;-62
2022/10/04 02:52:08;;;;;;;7.97;4.72;;;;;;;;;;5073473;28;20304;-62
2022/10/04 02:54:40;;;;;;;12.77;5.40;;;;;;;;;;5073830;28;20648;-63
2022/10/04 02:57:14;;;;;;;11.35;5.45;;;;;;;;;;5073289;28;20277;-62
2022/10/04 02:59:41;;;;;;;11.75;5.85;;;;;;;;;;5073815;28;20279;-62
2022/10/04 03:02:22;;;;;;;14.70;6.68;;;;;;;;;;5072990;28;20529;-62
2022/10/04 03:04:51;;;;;;;24.70;5.40;;;;;;;;;;5073501;28;20186;-62
2022/10/04 03:07:19;;;;;;;8.90;5.45;;;;;;;;;;5073615;28;20273;-63
2022/10/04 03:09:47;;;;;;;11.57;5.22;;;;;;;;;;5073606;28;20194;-62
2022/10/04 03:12:15;;;;;;;8.60;5.43;;;;;;;;;;5073063;28;20297;-62
2022/10/04 03:14:43;;;;;;;14.20;5.40;;;;;;;;;;5073484;28;20197;-62
2022/10/04 03:17:11;;;;;;;16.42;6.00;;;;;;;;;;5073084;28;20239;-63
2022/10/04 03:19:40;;;;;;;15.65;6.13;;;;;;;;;;5073323;28;20200;-63
2022/10/04 03:22:09;;;;;;;8.48;6.07;;;;;;;;;;5072850;28;20186;-62
2022/10/04 03:24:39;;;;;;;9.82;6.82;;;;;;;;;;5073065;28;20946;-62
2022/10/04 03:27:08;;;;;;;12.52;6.10;;;;;;;;;;5073026;28;20634;-62
2022/10/04 03:29:35;;;;;;;13.38;5.65;;;;;;;;;;5073274;28;20300;-62
2022/10/04 03:32:04;;;;;;;7.22;4.82;;;;;;;;;;5072376;28;20229;-63
2022/10/04 03:34:34;;;;;;;7.95;5.90;;;;;;;;;;5073001;28;20189;-62
2022/10/04 03:37:03;;;;;;;12.55;6.43;;;;;;;;;;5072842;28;20285;-62
2022/10/04 03:39:32;;;;;;;12.63;6.38;;;;;;;;;;5072991;28;20200;-62
2022/10/04 03:42:03;;;;;;;12.45;6.50;;;;;;;;;;5071008;28;20182;-62
2022/10/04 03:44:31;;;;;;;12.88;5.72;;;;;;;;;;5066969;28;20217;-62
2022/10/04 03:46:59;;;;;;;21.80;6.38;;;;;;;;;;5072312;28;20233;-62
2022/10/04 03:49:31;;;;;;;15.00;6.22;;;;;;;;;;5072631;28;20189;-62
2022/10/04 03:51:59;;;;;;;6.80;5.68;;;;;;;;;;5072715;28;20275;-63
2022/10/04 03:54:28;;;;;;;6.28;4.88;;;;;;;;;;5072310;28;20273;-63
2022/10/04 03:56:56;;;;;;;6.18;4.47;;;;;;;;;;5072586;28;20193;-62
2022/10/04 03:59:24;;;;;;;7.03;5.63;;;;;;;;;;5071696;28;20182;-62
2022/10/04 04:02:00;;;;;;;9.63;5.35;;;;;;;;;;5072911;28;20204;-63
2022/10/04 04:04:34;;;;;;;11.13;4.82;;;;;;;;;;5072741;28;20181;-63
2022/10/04 04:07:03;;;;;;;9.70;5.97;;;;;;;;;;5072904;28;20600;-62
2022/10/04 04:09:37;;;;;;;7.65;4.40;;;;;;;;;;5071916;28;20185;-62
2022/10/04 04:12:10;;;;;;;8.98;5.18;;;;;;;;;;5072040;28;20563;-62
2022/10/04 04:14:38;;;;;;;10.43;4.65;;;;;;;;;;5072384;28;20193;-62
2022/10/04 04:17:19;;;;;;;6.78;5.10;;;;;;;;;;5072206;28;20190;-63
2022/10/04 04:19:47;;;;;;;7.05;5.40;;;;;;;;;;5072206;28;20217;-62
2022/10/04 04:22:16;;;;;;;19.40;5.35;;;;;;;;;;5072714;28;20220;-62
2022/10/04 04:24:49;;;;;;;6.43;5.25;;;;;;;;;;5072649;28;20262;-64
2022/10/04 04:27:18;;;;;;;4.97;4.30;;;;;;;;;;5072985;28;20193;-63
2022/10/04 04:29:49;;;;;;;9.73;5.07;;;;;;;;;;5071634;28;20196;-63
2022/10/04 04:32:18;;;;;;;5.15;4.43;;;;;;;;;;5072531;28;20308;-62
2022/10/04 04:34:51;;;;;;;12.60;5.40;;;;;;;;;;5072508;28;20240;-62
2022/10/04 04:37:19;;;;;;;9.90;5.05;;;;;;;;;;5072929;28;20218;-62
2022/10/04 04:39:53;;;;;;;5.78;5.07;;;;;;;;;;5071758;28;20181;-62
2022/10/04 04:42:22;;;;;;;4.72;4.22;;;;;;;;;;5072764;28;20194;-62
2022/10/04 04:44:51;;;;;;;7.20;5.20;;;;;;;;;;5072097;28;20581;-64
2022/10/04 04:47:27;;;;;;;6.15;4.80;;;;;;;;;;5072413;28;20194;-62
2022/10/04 04:49:56;;;;;;;5.43;4.47;;;;;;;;;;5071993;28;20593;-62
2022/10/04 04:52:26;;;;;;;31.17;6.63;;;;;;;;;;5073089;28;20256;-62
2022/10/04 04:54:55;;;;;;;5.38;3.95;;;;;;;;;;5076137;28;20178;-62
2022/10/04 04:57:23;;;;;;;19.30;5.05;;;;;;;;;;5076308;28;20186;-63
2022/10/04 04:59:54;;;;;;;20.60;5.22;;;;;;;;;;5075511;28;20706;-62
2022/10/04 05:02:29;;;;;;;5.85;4.50;;;;;;;;;;5076428;28;20186;-62
2022/10/04 05:05:16;;;;;;;14.13;4.88;;;;;;;;;;5075463;28;20231;-62
2022/10/04 05:07:43;;;;;;;7.85;4.82;;;;;;;;;;5076242;28;20193;-62
2022/10/04 05:10:23;;;;;;;8.05;4.55;;;;;;;;;;5075377;28;20192;-62
2022/10/04 05:12:50;;;;;;;10.73;4.70;;;;;;;;;;5075911;28;20308;-62
2022/10/04 05:15:18;;;;;;;21.63;5.05;;;;;;;;;;5075591;28;20201;-62
2022/10/04 05:17:46;;;;;;;11.82;5.68;;;;;;;;;;5076021;28;20198;-62
2022/10/04 05:20:16;;;;;;;21.48;5.68;;;;;;;;;;5075484;28;20243;-62
2022/10/04 05:22:46;;;;;;;8.70;5.10;;;;;;;;;;5075767;28;20212;-62
2022/10/04 05:25:16;;;;;;;13.10;5.75;;;;;;;;;;5074933;28;20189;-62
2022/10/04 05:27:45;;;;;;;14.02;5.50;;;;;;;;;;5075893;28;20284;-63
2022/10/04 05:30:22;;;;;;;8.55;3.88;;;;;;;;;;5075380;28;20586;-62
2022/10/04 05:32:59;;;;;;;20.30;5.47;;;;;;;;;;5075587;28;20221;-66
2022/10/04 05:35:27;;;;;;;14.65;6.28;;;;;;;;;;5075256;28;20186;-63
2022/10/04 05:37:59;;;;;;;7.63;4.00;;;;;;;;;;5075529;28;20185;-62
2022/10/04 05:40:36;;;;;;;6.80;5.15;;;;;;;;;;5075403;28;20182;-62
2022/10/04 05:43:21;;;;;;;12.35;4.43;;;;;;;;;;5075540;28;20186;-62
2022/10/04 05:45:50;;;;;;;10.35;4.60;;;;;;;;;;5071923;28;20178;-63
2022/10/04 05:48:19;;;;;;;6.82;4.53;;;;;;;;;;5075064;28;20197;-62
2022/10/04 05:50:47;;;;;;;9.05;4.18;;;;;;;;;;5074606;28;20190;-63
2022/10/04 05:53:24;;;;;;;13.50;6.43;;;;;;;;;;5074889;28;20308;-62
2022/10/04 05:55:57;;;;;;;5.55;4.28;;;;;;;;;;5074230;28;20247;-63
2022/10/04 05:58:40;;;;;;;15.80;4.63;;;;;;;;;;5075583;28;20521;-62
2022/10/04 06:01:22;;;;;;;7.68;4.18;;;;;;;;;;5074505;28;20717;-63
2022/10/04 06:03:57;;;;;;;10.70;4.90;;;;;;;;;;5072958;28;20190;-62
2022/10/04 06:06:28;;;;;;;7.00;4.47;;;;;;;;;;5073996;28;20193;-62
2022/10/04 06:09:03;;;;;;;9.63;4.10;;;;;;;;;;5074494;28;20189;-63
2022/10/04 06:11:37;;;;;;;7.97;4.32;;;;;;;;;;5075245;28;20596;-62
2022/10/04 06:14:24;;;;;;;6.07;5.05;;;;;;;;;;5074539;28;20214;-62
2022/10/04 06:17:04;;;;;;;6.20;4.82;;;;;;;;;;5073804;28;20271;-63
2022/10/04 06:19:44;;;;;;;7.30;4.70;;;;;;;;;;5054809;28;20196;-62
2022/10/04 06:22:18;;;;;;;9.63;4.57;;;;;;;;;;5056500;28;20191;-62
2022/10/04 06:24:49;;;;;;;5.18;4.00;;;;;;;;;;5074725;28;20208;-62
2022/10/04 06:27:18;;;;;;;7.43;3.88;;;;;;;;;;5074316;28;20198;-62
2022/10/04 06:29:48;;;;;;;5.13;4.60;;;;;;;;;;5074710;28;20193;-62
2022/10/04 06:32:29;;;;;;;4.55;3.65;;;;;;;;;;5073204;28;20699;-62
2022/10/04 06:35:11;;;;;;;4.90;3.72;;;;;;;;;;5074414;28;20198;-62
2022/10/04 06:37:57;;;;;;;5.90;4.30;;;;;;;;;;5073402;28;20221;-62
2022/10/04 06:40:44;;;;;;;8.73;3.75;;;;;;;;;;5063709;28;20185;-63
2022/10/04 06:43:22;;;;;;;5.32;4.38;;;;;;;;;;5060894;28;20521;-63
2022/10/04 06:46:04;;;;;;;6.72;4.47;;;;;;;;;;5074298;28;20267;-62
2022/10/04 06:48:41;;;;;;;4.78;3.90;;;;;;;;;;5074119;28;20652;-63
2022/10/04 06:51:16;;;;;;;4.65;4.15;;;;;;;;;;5074112;28;20185;-62
2022/10/04 06:53:47;;;;;;;4.95;3.80;;;;;;;;;;5074334;28;20307;-62
2022/10/04 06:56:28;;;;;;;4.53;3.88;;;;;;;;;;5073562;28;20282;-63
2022/10/04 06:59:25;;;;;;;5.00;3.90;;;;;;;;;;5074156;28;20197;-63
2022/10/04 07:01:54;;;;;;;5.30;3.72;;;;;;;;;;5073832;28;20224;-62
2022/10/04 07:04:26;;;;;;;4.43;3.50;;;;;;;;;;5072830;28;20271;-63
2022/10/04 07:09:50;;;;;;;4.90;2.70;;;;;;;;;;5073661;28;20182;-62
2022/10/04 07:12:19;;;;;;;5.80;3.38;;;;;;;;;;5073542;28;20206;-62
2022/10/04 07:14:47;;;;;;;3.75;2.92;;;;;;;;;;5073906;28;20281;-62
2022/10/04 07:17:18;;;;;;;4.10;2.75;;;;;;;;;;5072023;28;20378;-62
2022/10/04 07:19:49;;;;;;;4.13;3.45;;;;;;;;;;5073873;28;20208;-63
2022/10/04 07:22:18;;;;;;;3.58;2.80;;;;;;;;;;5072815;28;20273;-62
2022/10/04 07:24:50;;;;;;;3.67;2.90;;;;;;;;;;5073552;28;20193;-62
2022/10/04 07:27:20;;;;;;;3.40;2.78;;;;;;;;;;5072526;28;20247;-63
2022/10/04 07:29:47;;;;;;;4.28;2.92;;;;;;;;;;5073686;28;20190;-62
2022/10/04 07:32:18;;;;;;;4.88;3.63;;;;;;;;;;5072537;28;20263;-62
2022/10/04 07:34:47;;;;;;;3.45;2.97;;;;;;;;;;5073331;28;20644;-62
2022/10/04 07:37:17;;;;;;;3.55;3.05;;;;;;;;;;5073006;28;20214;-63
2022/10/04 07:39:49;;;;;;;5.35;4.40;;;;;;;;;;5072800;28;20276;-62
2022/10/04 07:42:21;;;;;;;3.92;3.53;;;;;;;;;;5073330;28;20194;-62
2022/10/04 07:44:55;;;;;;;3.40;3.10;;;;;;;;;;5072947;28;20190;-65
2022/10/04 07:47:26;;;;;;;3.05;2.38;;;;;;;;;;5070734;28;20188;-65
2022/10/04 07:49:54;;;;;;;3.55;2.58;;;;;;;;;;5064077;28;20185;-63
2022/10/04 07:52:27;;;;;;;4.95;2.83;;;;;;;;;;5070664;28;20871;-63
2022/10/04 07:55:01;;;;;;;5.13;2.97;;;;;;;;;;5071133;28;20597;-64
2022/10/04 07:57:31;;;;;;;4.38;3.55;;;;;;;;;;5067547;28;20193;-63
2022/10/04 08:00:04;;;;;;;3.13;2.63;;;;;;;;;;5070865;28;20644;-63
2022/10/04 08:02:39;;;;;;;3.97;3.15;;;;;;;;;;5070848;28;20652;-63
2022/10/04 08:05:14;;;;;;;3.72;2.90;;;;;;;;;;5071143;28;20189;-64
2022/10/04 08:07:52;;;;;;;3.30;2.70;;;;;;;;;;5070101;28;20655;-63
2022/10/04 08:10:24;;;;;;;3.83;3.03;;;;;;;;;;5071119;28;20189;-65
2022/10/04 08:12:54;;;;;;;4.95;3.45;;;;;;;;;;5070443;28;20225;-64
2022/10/04 08:15:30;;;;;;;3.40;2.85;;;;;;;;;;5070929;28;20197;-63
2022/10/04 08:18:00;;;;;;;5.05;3.20;;;;;;;;;;5070077;28;20675;-64
2022/10/04 08:20:34;;;;;;;3.73;2.83;;;;;;;;;;5066609;28;20284;-63
2022/10/04 08:23:17;;;;;;;4.90;3.10;;;;;;;;;;5071110;28;20459;-64
2022/10/04 08:25:48;;;;;;;4.00;3.03;;;;;;;;;;5067672;28;20790;-63
2022/10/04 08:31:17;;;;;;;3.53;3.03;;;;;;;;;;5069536;28;20427;-63
2022/10/04 08:34:02;;;;;;;3.33;2.40;;;;;;;;;;5067121;28;20484;-63
2022/10/04 08:36:40;;;;;;;3.10;2.60;;;;;;;;;;5069005;28;20541;-66
2022/10/04 08:39:20;;;;;;;4.00;2.83;;;;;;;;;;5069173;28;20530;-63
2022/10/04 08:42:22;;;;;;;3.67;3.07;;;;;;;;;;5063342;28;20955;-63
2022/10/04 08:45:19;;;;;;;3.90;2.67;;;;;;;;;;5069669;28;20454;-63
2022/10/04 08:48:02;;;;;;;3.60;2.33;;;;;;;;;;5068242;28;20809;-63
2022/10/04 08:50:44;;;;;;;3.73;2.63;;;;;;;;;;5067158;28;20428;-63
2022/10/04 08:53:29;;;;;;;3.30;2.80;;;;;;;;;;5070500;28;20920;-63
2022/10/04 08:56:10;;;;;;;4.17;2.10;;;10.40;93.90;;;;;;5058655;28;20437;-65
2022/10/04 08:59:10;;;;;;;4.80;2.20;;;17.60;72.40;;;;;;5067835;28;20450;-63
2022/10/04 09:02:11;;;;;;;2.90;2.53;;;17.90;67.50;;;;;;5068043;28;20503;-63
2022/10/04 09:05:06;;;;;;;2.83;2.33;;;17.90;68.20;;;;;;5059312;28;20456;-64
2022/10/04 09:07:54;;;;;;;3.80;2.30;;;17.60;67.20;;;;;;5066540;28;20806;-63
2022/10/04 09:10:35;;;;;;;2.67;2.17;;;17.50;68.60;;;;;;5070053;28;20438;-64
2022/10/04 09:13:32;;;;;;;2.90;2.40;;;17.40;67.90;;;;;;5066046;28;20580;-64
2022/10/04 09:16:17;;;;;;;4.57;3.30;;;17.40;69.30;;;;;;5067117;28;20442;-63
2022/10/04 09:19:22;;;;;;;3.37;2.20;;;17.40;69.70;;;;;;5069825;28;20930;-64
2022/10/04 09:22:19;;;;;;;4.00;2.10;;;17.70;67.80;;;;;;5068379;28;20488;-64
2022/10/04 09:25:26;;;;;;;3.13;2.23;;;17.90;67.70;;;;;;5069097;28;20485;-64
2022/10/04 09:28:15;;;;;;;3.10;2.50;;;18.30;68.30;;;;;;5008045;28;20440;-63
2022/10/04 09:31:15;;;;;;;2.80;2.37;;;18.90;66.40;;;;;;4998584;28;20454;-64
2022/10/04 09:34:00;;;;;;;2.93;2.23;;;19.90;68.70;;;;;;5055450;28;20479;-64
2022/10/04 09:36:57;;;;;;;3.23;2.10;;;21.10;61.00;;;;;;5059020;28;20463;-64
2022/10/04 09:39:51;;;;;;;3.53;1.90;;;21.70;58.50;;;;;;5068553;28;20497;-65
2022/10/04 09:42:38;;;;;;;3.83;2.70;;;22.20;54.50;;;;;;5064305;28;20442;-64
2022/10/04 09:45:31;;;;;;;3.00;2.50;;;22.20;53.70;;;;;;5068058;28;20779;-64
2022/10/04 09:48:30;;;;;;;3.63;2.80;;;22.30;53.80;;;;;;5061743;28;20863;-64
2022/10/04 09:51:19;;;;;;;5.63;3.20;;;22.30;52.30;;;;;;5067139;28;20444;-64
2022/10/04 09:54:03;;;;;;;4.20;2.80;;;22.30;57.10;;;;;;5068452;28;20479;-63
2022/10/04 09:56:51;;;;;;;3.87;3.07;;;22.10;53.10;;;;;;5065411;28;20539;-64
2022/10/04 10:00:06;;;;;;;3.50;2.67;;;22.20;53.50;;;;;;5070825;28;20480;-64
2022/10/04 10:03:17;;;;;;;4.50;2.10;;;22.10;54.40;;;;;;5060341;28;20451;-63
2022/10/04 10:06:21;;;;;;;3.73;1.90;;;22.90;53.30;;;;;;5071813;28;20497;-65
2022/10/04 10:09:07;;;;;;;3.50;2.50;;;23.70;49.10;;;;;;5051768;28;20508;-63
2022/10/04 10:15:07;;;;;;;3.93;2.27;;;24.00;48.40;;;;;;5059563;28;20524;-63
2022/10/04 10:17:41;;;;;;;4.57;2.03;;;24.40;48.00;;;;;;5057094;28;20447;-63
2022/10/04 10:20:41;;;;;;;3.43;1.80;;;24.50;46.80;;;;;;5073075;28;20480;-63
2022/10/04 10:23:44;;;;;;;3.83;2.37;;;24.80;45.40;;;;;;5071318;28;20931;-66
2022/10/04 10:26:48;;;;;;;3.07;2.00;;;24.80;45.40;;;;;;5069732;28;20432;-63
2022/10/04 10:29:42;;;;;;;3.23;1.60;;;25.10;45.20;;;;;;5071561;28;20442;-63
2022/10/04 10:32:39;;;;;;;4.50;2.40;;;25.50;45.00;;;;;;5070421;28;20945;-64
2022/10/04 10:35:35;;;;;;;3.27;2.00;;;25.90;44.10;;;;;;5011028;28;20866;-64
2022/10/04 10:38:28;;;;;;;4.37;2.10;;;26.20;42.90;;;;;;5069891;28;20523;-63
2022/10/04 10:41:19;;;;;;;4.30;1.90;;;26.10;40.00;;;;;;5071755;28;20927;-65
2022/10/04 10:44:25;;;;;;;4.03;2.40;;;25.70;40.80;;;;;;5072607;28;20892;-64
2022/10/04 10:47:11;;;;;;;2.83;2.00;;;25.10;41.40;;;;;;5069114;28;20790;-63
2022/10/04 10:50:01;;;;;;;7.10;2.17;;;24.50;43.20;;;;;;5067589;28;20443;-64
2022/10/04 10:53:08;;;;;;;3.50;1.80;;;23.90;43.60;;;;;;5072222;28;20946;-64
2022/10/04 10:56:09;;;;;;;5.93;2.17;;;23.70;46.10;;;;;;5070934;28;20953;-63
2022/10/04 10:59:35;;;;;;;3.70;2.37;;;23.60;46.10;;;;;;5070807;28;20758;-63
2022/10/04 11:02:40;;;;;;;2.60;2.10;;;23.60;46.70;;;;;;5070566;28;20438;-63
2022/10/04 11:05:48;;;;;;;4.30;2.43;;;23.50;46.90;;;;;;5070259;28;20439;-65
2022/10/04 11:08:45;;;;;;;3.20;2.23;;;23.50;47.10;;;;;;5070477;28;20444;-64
2022/10/04 11:11:40;;;;;;;4.07;1.60;;;23.60;47.40;;;;;;5070702;28;20481;-64
2022/10/04 11:14:46;;;;;;;3.00;1.90;;;23.70;47.20;;;;;;5070081;28;20956;-64
2022/10/04 11:17:42;;;;;;;2.83;1.80;;;23.80;46.40;;;;;;5050490;28;20443;-64
2022/10/04 11:20:49;;;;;;;3.83;1.83;;;24.20;46.90;;;;;;5072227;28;20519;-63
2022/10/04 11:23:50;;;;;;;3.80;2.20;;;25.30;46.60;;;;;;5071303;28;20519;-63
2022/10/04 11:26:46;;;;;;;2.90;1.90;;;27.30;47.20;;;;;;5070889;28;20843;-64
2022/10/04 11:29:25;;;;;;;3.80;2.20;;;30.10;42.20;;;;;;5070825;28;20444;-66
2022/10/04 11:32:17;;;;;;;6.33;2.23;;;32.80;36.10;;;;;;5069433;28;20801;-63
2022/10/04 11:35:25;;;;;;;3.97;2.10;;;34.90;30.80;;;;;;5068082;28;21712;-63
2022/10/04 11:38:10;;;;;;;3.90;1.97;;;36.60;29.40;;;;;;5067892;28;20431;-64
2022/10/04 11:40:55;;;;;;;2.70;1.83;;;38.10;24.50;;;;;;5071829;28;20440;-64
2022/10/04 11:43:45;;;;;;;3.33;1.77;;;39.50;23.00;;;;;;5068371;28;20912;-64
2022/10/04 11:46:25;;;;;;;3.30;1.83;;;40.70;21.50;;;;;;5070945;28;20486;-64
2022/10/04 11:49:07;;;;;;;2.83;2.00;;;41.70;21.10;;;;;;5070644;28;20424;-64
2022/10/04 11:51:58;;;;;;;3.23;2.10;;;42.60;20.40;;;;;;5071523;28;20432;-65
2022/10/04 11:55:02;;;;;;;4.00;2.37;;;42.40;19.80;;;;;;5069651;28;20440;-65
2022/10/04 11:57:39;;;;;;;4.40;2.10;;;43.10;18.70;;;;;;5071406;28;20440;-66
2022/10/04 12:00:15;;;;;;;3.70;2.10;;;43.80;18.20;;;;;;5063534;28;20956;-65
2022/10/04 12:03:16;;;;;;;2.97;2.47;;;44.00;17.60;;;;;;5069847;28;20443;-65
2022/10/04 12:06:15;;;;;;;3.27;1.70;;;44.40;16.80;;;;;;5067083;28;20567;-65
2022/10/04 12:08:58;;;;;;;3.90;1.70;;;44.70;16.70;;;;;;5053726;28;20458;-64
2022/10/04 12:14:49;;;;;;;3.70;1.60;;;44.40;16.00;;;;;;5071133;28;20457;-62
2022/10/04 12:17:45;;;;;;;3.07;1.70;;;44.60;16.20;;;;;;5066139;28;20872;-62
2022/10/04 12:20:56;;;;;;;5.50;2.23;;;45.20;16.00;;;;;;5067891;28;20439;-62
2022/10/04 12:23:48;;;;;;;3.80;1.83;;;45.80;15.50;;;;;;5070497;28;20438;-62
2022/10/04 12:26:44;;;;;;;2.13;1.23;;;46.30;14.90;;;;;;5069351;28;20943;-63
2022/10/04 12:29:50;;;;;;;2.07;1.20;;;45.40;14.80;;;;;;5070683;28;20436;-62
2022/10/04 12:32:23;;;;;;;3.80;1.50;;;44.90;14.70;;;;;;5019894;28;20448;-64
2022/10/04 12:35:04;;;;;;;3.30;1.37;;;44.80;14.60;;;;;;5070577;28;20440;-64
2022/10/04 12:37:38;;;;;;;2.17;1.40;;;44.20;15.10;;;;;;5067719;28;20562;-64
2022/10/04 12:40:33;;;;;;;2.27;1.20;;;44.10;15.60;;;;;;5064801;28;20444;-67
2022/10/04 12:43:08;;;;;;;2.50;1.70;;;44.20;15.20;;;;;;5068891;28;20466;-64
2022/10/04 12:45:57;;;;;;;3.90;1.67;;;44.30;15.20;;;;;;5070442;28;20487;-64
2022/10/04 12:48:33;;;;;;;2.77;1.53;;;44.30;15.30;;;;;;5067337;28;20509;-64
2022/10/04 12:51:20;;;;;;;2.20;1.07;;;44.40;15.30;;;;;;5070741;28;20446;-66
2022/10/04 12:53:52;;;;;;;2.70;1.20;;;44.10;15.30;;;;;;5069072;28;20440;-65
2022/10/04 12:56:44;;;;;;;2.27;1.00;;;43.70;15.10;;;;;;5070545;28;20432;-64
2022/10/04 12:59:38;;;;;;;3.13;1.10;;;42.80;15.20;;;;;;5068192;28;20504;-64
2022/10/04 13:02:28;;;;;;;2.20;1.00;;;42.30;15.10;;;;;;5070566;28;21010;-64
2022/10/04 13:05:01;;;;;;;2.67;1.00;;;41.70;16.00;;;;;;5069821;28;20486;-65
2022/10/04 13:07:53;;;;;;;2.07;1.00;;;41.40;16.50;;;;;;5070789;28;20442;-65
2022/10/04 13:10:51;;;;;;;2.00;1.00;;;41.20;16.00;;;;;;5067347;28;20463;-65
2022/10/04 13:13:55;;;;;;;3.00;1.03;;;39.80;16.50;;;;;;5037947;28;20435;-64
2022/10/04 13:16:35;;;;;;;2.17;1.00;;;37.50;17.00;;;;;;5064573;28;20439;-65
2022/10/04 13:19:12;;;;;;;1.93;1.07;;;35.70;18.30;;;;;;5070718;28;20448;-64
2022/10/04 13:22:12;;;;;;;3.40;1.00;;;34.40;19.50;;;;;;5074169;28;20779;-63
2022/10/04 13:24:59;;;;;;;3.00;1.03;;;32.50;20.80;;;;;;5062721;28;21462;-64
2022/10/04 13:27:37;;;;;;;3.07;1.00;;;30.80;22.80;;;;;;5071825;28;20441;-69
2022/10/04 13:30:15;;;;;;;1.80;0.70;;;29.50;23.40;;;;;;5071655;28;20438;-63
2022/10/04 13:32:50;;;;;;;2.10;1.00;;;28.60;23.50;;;;;;5073465;28;20450;-63
2022/10/04 13:35:24;;;;;;;2.33;1.00;;;27.70;23.50;;;;;;5072457;28;20431;-65
2022/10/04 13:38:09;;;;;;;2.60;1.00;;;27.00;25.60;;;;;;5073419;28;20533;-64
2022/10/04 13:40:49;;;;;;;2.87;1.40;;;26.20;26.60;;;;;;5072776;28;20439;-66
2022/10/04 13:43:47;;;;;;;2.17;1.17;;;25.60;28.00;;;;;;5073663;28;20431;-64
2022/10/04 13:46:27;;;;;;;2.20;1.00;;;25.00;29.40;;;;;;5069486;28;20946;-63
2022/10/04 13:49:06;;;;;;;2.30;1.17;;;24.50;29.50;;;;;;5069451;28;20513;-66
2022/10/04 13:58:02;;;;;;;4.10;1.07;;;23.10;32.60;;;;;;5073396;28;20470;-63
2022/10/04 14:00:50;;;;;;;2.10;1.00;;;22.70;33.60;;;;;;5072591;28;20416;-65
2022/10/04 14:03:38;;;;;;;2.00;0.93;;;22.40;33.00;;;;;;5070231;28;20464;-63
2022/10/04 14:06:35;;;;;;;2.27;0.70;;;22.20;33.20;;;;;;5070926;28;20483;-63
2022/10/04 14:09:33;;;;;;;2.90;0.97;;;21.90;34.10;;;;;;5069757;28;20452;-64
2022/10/04 14:12:40;;;;;;;2.00;1.00;;;21.60;35.00;;;;;;5068643;28;20439;-64
2022/10/04 14:15:40;;;;;;;2.00;0.90;;;21.30;34.80;;;;;;5072463;28;20440;-63
2022/10/04 14:18:32;;;;;;;3.57;1.70;;;21.00;34.90;;;;;;5068056;28;20443;-64
2022/10/04 14:21:38;;;;;;;3.37;1.93;;;20.80;36.60;;;;;;5071719;28;20444;-63
2022/10/04 14:24:39;;;;;;;3.47;1.23;;;20.50;38.70;;;;;;5071346;28;20497;-63
2022/10/04 14:28:02;;;;;;;2.93;1.20;;;20.20;39.40;;;;;;5054597;28;20443;-63
2022/10/04 14:30:40;;;;;;;4.63;1.17;;;20.00;40.40;;;;;;5032257;28;20443;-63
2022/10/04 14:33:50;;;;;;;2.00;1.13;;;19.90;42.10;;;;;;5070725;28;20796;-63
2022/10/04 14:36:47;;;;;;;2.20;1.33;;;19.70;43.10;;;;;;5071033;28;20973;-63
2022/10/04 14:39:44;;;;;;;3.20;1.50;;;19.50;44.10;;;;;;5069413;28;20970;-63
2022/10/04 14:42:36;;;;;;;3.10;1.70;;;19.30;45.30;;;;;;5070515;28;20436;-64
2022/10/04 14:45:26;;;;;;;2.07;1.23;;;19.20;46.00;;;;;;5069934;28;20824;-63
2022/10/04 14:48:29;;;;;;;2.53;1.40;;;19.10;45.40;;;;;;5068744;28;20448;-63
2022/10/04 14:51:35;;;;;;;2.20;1.30;;;18.90;45.50;;;;;;5060949;28;20440;-63
2022/10/04 14:54:07;;;;;;;2.70;1.43;;;18.80;46.00;;;;;;5067814;28;20439;-64
2022/10/04 14:56:49;;;;;;;5.07;1.87;;;18.60;45.70;;;;;;5071152;28;20466;-62
2022/10/04 14:59:43;;;;;;;2.30;1.20;;;18.50;46.30;;;;;;5069880;28;20459;-62
2022/10/04 15:02:38;;;;;;;2.00;1.30;;;18.50;46.40;;;;;;5038484;28;20444;-63
2022/10/04 15:05:33;;;;;;;4.20;1.40;;;18.40;46.50;;;;;;5070992;28;20872;-63
2022/10/04 15:08:37;;;;;;;2.20;1.00;;;18.30;46.60;;;;;;5064712;28;20475;-63
2022/10/04 15:11:08;;;;;;;2.70;1.37;;;18.30;46.50;;;;;;5070220;28;20444;-65
2022/10/04 15:13:41;;;;;;;2.67;1.30;;;18.20;47.00;;;;;;5070512;28;20440;-63
2022/10/04 15:16:16;;;;;;;1.90;1.10;;;18.10;47.60;;;;;;5069861;28;20440;-63
2022/10/04 15:18:53;;;;;;;3.10;1.67;;;18.00;47.50;;;;;;5067341;28;20564;-64
2022/10/04 15:22:00;;;;;;;2.17;1.23;;;17.90;47.00;;;;;;5071005;28;20981;-63
2022/10/04 15:24:32;;;;;;;4.00;1.50;;;17.80;48.00;;;;;;5056199;28;20787;-63